createdAt,value
2018-01-12T00:00:19.494Z,0.00
2018-01-12T00:01:19.466Z,0.00
2018-01-12T00:02:19.439Z,0.00
2018-01-12T00:03:19.419Z,0.00
2018-01-12T00:04:19.396Z,0.00
2018-01-12T00:05:19.375Z,0.00
2018-01-12T00:06:19.337Z,0.00
2018-01-12T00:07:19.336Z,0.00
2018-01-12T00:08:19.289Z,0.00
2018-01-12T00:09:19.267Z,0.00
2018-01-12T00:10:19.266Z,0.00
2018-01-12T00:11:19.211Z,0.00
2018-01-12T00:12:19.185Z,0.00
2018-01-12T00:13:19.191Z,0.00
2018-01-12T00:14:19.133Z,0.00
2018-01-12T00:15:19.106Z,0.00
2018-01-12T00:16:19.085Z,0.00
2018-01-12T00:17:19.058Z,0.00
2018-01-12T00:18:19.027Z,0.00
2018-01-12T00:19:19.015Z,0.00
2018-01-12T00:20:18.975Z,0.00
2018-01-12T00:21:18.952Z,0.00
2018-01-12T00:22:18.925Z,0.00
2018-01-12T00:23:18.900Z,0.00
2018-01-12T00:24:18.871Z,0.00
2018-01-12T00:25:18.899Z,0.00
2018-01-12T00:26:18.821Z,0.00
2018-01-12T00:27:18.802Z,0.00
2018-01-12T00:28:18.773Z,0.00
2018-01-12T00:29:18.753Z,0.00
2018-01-12T00:30:18.721Z,0.00
2018-01-12T00:31:18.692Z,0.00
2018-01-12T00:32:18.667Z,0.00
2018-01-12T00:33:18.642Z,0.00
2018-01-12T00:34:18.619Z,0.00
2018-01-12T00:35:18.600Z,0.00
2018-01-12T00:36:18.561Z,0.00
2018-01-12T00:37:18.536Z,0.00
2018-01-12T00:38:18.511Z,0.00
2018-01-12T00:39:18.487Z,0.00
2018-01-12T00:40:18.459Z,0.00
2018-01-12T00:41:18.438Z,0.00
2018-01-12T00:42:18.405Z,0.00
2018-01-12T00:43:18.382Z,0.00
2018-01-12T00:44:18.359Z,0.00
2018-01-12T00:45:18.328Z,0.00
2018-01-12T00:46:18.307Z,0.00
2018-01-12T00:47:18.281Z,0.00
2018-01-12T00:48:18.251Z,0.00
2018-01-12T00:49:18.226Z,0.00
2018-01-12T00:50:18.205Z,0.00
2018-01-12T00:51:18.174Z,0.00
2018-01-12T00:52:18.146Z,0.00
2018-01-12T00:53:18.129Z,0.00
2018-01-12T00:54:18.101Z,0.00
2018-01-12T00:55:18.081Z,0.00
2018-01-12T00:56:18.046Z,0.00
2018-01-12T00:57:18.022Z,0.00
2018-01-12T00:58:18.039Z,0.00
2018-01-12T00:59:17.970Z,0.00
2018-01-12T01:00:17.947Z,0.00
2018-01-12T01:01:17.916Z,0.00
2018-01-12T01:02:17.889Z,0.00
2018-01-12T01:03:17.874Z,0.00
2018-01-12T01:04:17.845Z,0.00
2018-01-12T01:05:17.814Z,0.00
2018-01-12T01:06:17.789Z,0.00
2018-01-12T01:07:17.764Z,0.00
2018-01-12T01:08:17.735Z,0.00
2018-01-12T01:09:17.710Z,0.00
2018-01-12T01:10:17.688Z,0.00
2018-01-12T01:11:17.666Z,0.00
2018-01-12T01:12:17.641Z,0.00
2018-01-12T01:13:17.608Z,0.00
2018-01-12T01:14:17.583Z,0.00
2018-01-12T01:15:17.564Z,0.00
2018-01-12T01:16:17.545Z,0.00
2018-01-12T01:17:17.503Z,0.00
2018-01-12T01:18:17.484Z,0.00
2018-01-12T01:19:17.485Z,0.00
2018-01-12T01:20:17.429Z,0.00
2018-01-12T01:21:17.402Z,0.00
2018-01-12T01:22:17.375Z,0.00
2018-01-12T01:23:17.351Z,0.00
2018-01-12T01:24:17.325Z,0.00
2018-01-12T01:25:18.128Z,0.00
2018-01-12T01:26:17.281Z,0.00
2018-01-12T01:27:17.248Z,0.00
2018-01-12T01:28:17.227Z,0.00
2018-01-12T01:29:17.199Z,0.00
2018-01-12T01:30:17.171Z,0.00
2018-01-12T01:31:17.148Z,0.00
2018-01-12T01:32:17.128Z,0.00
2018-01-12T01:33:17.100Z,0.00
2018-01-12T01:34:17.105Z,0.00
2018-01-12T01:35:17.053Z,0.00
2018-01-12T01:36:17.015Z,0.00
2018-01-12T01:37:16.992Z,0.00
2018-01-12T01:38:16.976Z,0.00
2018-01-12T01:39:16.987Z,0.00
2018-01-12T01:40:16.915Z,0.00
2018-01-12T01:41:16.899Z,0.00
2018-01-12T01:42:16.867Z,0.00
2018-01-12T01:43:16.838Z,0.00
2018-01-12T01:44:16.813Z,0.00
2018-01-12T01:45:16.785Z,0.00
2018-01-12T01:46:16.759Z,0.00
2018-01-12T01:47:16.734Z,0.00
2018-01-12T01:48:16.713Z,0.00
2018-01-12T01:49:16.686Z,0.00
2018-01-12T01:50:16.661Z,0.00
2018-01-12T01:51:16.645Z,0.00
2018-01-12T01:52:16.621Z,0.00
2018-01-12T01:53:16.580Z,0.00
2018-01-12T01:54:16.552Z,0.00
2018-01-12T01:55:16.542Z,0.00
2018-01-12T01:56:16.508Z,0.00
2018-01-12T01:57:16.479Z,0.00
2018-01-12T01:58:16.453Z,0.00
2018-01-12T01:59:16.426Z,0.00
2018-01-12T02:00:16.400Z,0.00
2018-01-12T02:01:16.375Z,0.00
2018-01-12T02:02:16.357Z,0.00
2018-01-12T02:03:16.336Z,0.00
2018-01-12T02:04:16.300Z,0.00
2018-01-12T02:05:16.275Z,0.00
2018-01-12T02:06:16.309Z,0.00
2018-01-12T02:07:16.223Z,0.00
2018-01-12T02:08:16.207Z,0.00
2018-01-12T02:09:16.193Z,0.00
2018-01-12T02:10:16.202Z,0.00
2018-01-12T02:11:16.119Z,0.00
2018-01-12T02:12:16.096Z,0.00
2018-01-12T02:13:16.072Z,0.00
2018-01-12T02:14:16.060Z,0.00
2018-01-12T02:15:16.015Z,0.00
2018-01-12T02:16:15.992Z,0.00
2018-01-12T02:17:15.969Z,0.00
2018-01-12T02:18:15.940Z,0.00
2018-01-12T02:19:15.940Z,0.00
2018-01-12T02:20:15.888Z,0.00
2018-01-12T02:21:15.874Z,0.00
2018-01-12T02:22:15.860Z,0.00
2018-01-12T02:23:15.813Z,0.00
2018-01-12T02:24:15.790Z,0.00
2018-01-12T02:25:15.765Z,0.00
2018-01-12T02:26:15.736Z,0.00
2018-01-12T02:27:15.713Z,0.00
2018-01-12T02:28:15.688Z,0.00
2018-01-12T02:29:15.657Z,0.00
2018-01-12T02:30:15.631Z,0.00
2018-01-12T02:31:15.605Z,0.00
2018-01-12T02:32:15.586Z,0.00
2018-01-12T02:33:15.565Z,0.00
2018-01-12T02:34:15.533Z,0.00
2018-01-12T02:35:15.506Z,0.00
2018-01-12T02:36:15.486Z,0.00
2018-01-12T02:37:15.454Z,0.00
2018-01-12T02:38:15.428Z,0.00
2018-01-12T02:39:15.412Z,0.00
2018-01-12T02:40:15.382Z,0.00
2018-01-12T02:41:15.360Z,0.00
2018-01-12T02:42:15.332Z,0.00
2018-01-12T02:43:15.313Z,0.00
2018-01-12T02:44:15.295Z,0.00
2018-01-12T02:45:15.250Z,0.00
2018-01-12T02:46:15.258Z,0.00
2018-01-12T02:47:15.201Z,0.00
2018-01-12T02:48:15.173Z,0.00
2018-01-12T02:49:15.147Z,0.00
2018-01-12T02:50:15.121Z,0.00
2018-01-12T02:51:15.098Z,0.00
2018-01-12T02:52:15.068Z,0.00
2018-01-12T02:53:15.044Z,0.00
2018-01-12T02:54:15.025Z,0.00
2018-01-12T02:55:14.992Z,0.00
2018-01-12T02:56:14.976Z,0.00
2018-01-12T02:57:14.940Z,0.00
2018-01-12T02:58:14.941Z,0.00
2018-01-12T02:59:14.892Z,0.00
2018-01-12T03:00:14.867Z,0.00
2018-01-12T03:01:14.840Z,0.00
2018-01-12T03:02:14.821Z,0.00
2018-01-12T03:03:14.788Z,0.00
2018-01-12T03:04:14.762Z,0.00
2018-01-12T03:05:14.741Z,0.00
2018-01-12T03:06:14.711Z,0.00
2018-01-12T03:07:14.687Z,0.00
2018-01-12T03:08:14.664Z,0.00
2018-01-12T03:09:14.634Z,0.00
2018-01-12T03:10:14.607Z,0.00
2018-01-12T03:11:14.585Z,0.00
2018-01-12T03:12:14.554Z,0.00
2018-01-12T03:13:14.533Z,0.00
2018-01-12T03:14:14.506Z,0.00
2018-01-12T03:15:14.477Z,0.00
2018-01-12T03:16:14.456Z,0.00
2018-01-12T03:17:14.426Z,0.00
2018-01-12T03:18:14.400Z,0.00
2018-01-12T03:19:14.381Z,0.00
2018-01-12T03:20:14.354Z,0.00
2018-01-12T03:21:14.322Z,0.00
2018-01-12T03:22:14.370Z,0.00
2018-01-12T03:23:14.269Z,0.00
2018-01-12T03:24:14.247Z,0.00
2018-01-12T03:25:14.221Z,0.00
2018-01-12T03:26:14.195Z,0.00
2018-01-12T03:27:14.175Z,0.00
2018-01-12T03:28:14.144Z,0.00
2018-01-12T03:29:14.237Z,0.00
2018-01-12T03:30:14.103Z,0.00
2018-01-12T03:31:14.072Z,0.00
2018-01-12T03:32:14.080Z,0.00
2018-01-12T03:33:14.013Z,0.00
2018-01-12T03:34:13.984Z,0.00
2018-01-12T03:35:13.961Z,0.00
2018-01-12T03:36:13.932Z,0.00
2018-01-12T03:37:13.909Z,0.00
2018-01-12T03:38:13.882Z,0.00
2018-01-12T03:39:13.857Z,0.00
2018-01-12T03:40:13.830Z,0.00
2018-01-12T03:41:13.805Z,0.00
2018-01-12T03:42:13.787Z,0.00
2018-01-12T03:43:13.755Z,0.00
2018-01-12T03:44:13.734Z,0.00
2018-01-12T03:45:13.709Z,0.00
2018-01-12T03:46:13.680Z,0.00
2018-01-12T03:47:13.655Z,0.00
2018-01-12T03:48:13.630Z,0.00
2018-01-12T03:49:13.599Z,0.00
2018-01-12T03:50:13.575Z,0.00
2018-01-12T03:51:13.549Z,0.00
2018-01-12T03:52:13.526Z,0.00
2018-01-12T03:53:13.506Z,0.00
2018-01-12T03:54:13.470Z,0.00
2018-01-12T03:55:13.446Z,0.00
2018-01-12T03:56:13.466Z,0.00
2018-01-12T03:57:13.411Z,0.00
2018-01-12T03:58:13.420Z,0.00
2018-01-12T03:59:13.341Z,0.00
2018-01-12T04:00:13.360Z,0.00
2018-01-12T04:01:13.292Z,0.00
2018-01-12T04:02:13.260Z,0.00
2018-01-12T04:03:13.241Z,0.00
2018-01-12T04:04:13.212Z,0.00
2018-01-12T04:05:13.191Z,0.00
2018-01-12T04:06:13.166Z,0.00
2018-01-12T04:07:13.135Z,0.00
2018-01-12T04:08:13.113Z,0.00
2018-01-12T04:09:13.085Z,0.00
2018-01-12T04:10:13.070Z,0.00
2018-01-12T04:11:13.035Z,0.00
2018-01-12T04:12:13.006Z,0.00
2018-01-12T04:13:12.991Z,0.00
2018-01-12T04:14:12.954Z,0.00
2018-01-12T04:15:12.942Z,0.00
2018-01-12T04:16:12.912Z,0.00
2018-01-12T04:17:12.883Z,0.00
2018-01-12T04:18:12.856Z,0.00
2018-01-12T04:19:12.851Z,0.00
2018-01-12T04:20:12.803Z,0.00
2018-01-12T04:21:12.776Z,0.00
2018-01-12T04:22:12.757Z,0.00
2018-01-12T04:23:12.725Z,0.00
2018-01-12T04:24:12.704Z,0.00
2018-01-12T04:25:12.677Z,0.00
2018-01-12T04:26:12.650Z,0.00
2018-01-12T04:27:12.629Z,0.00
2018-01-12T04:28:12.598Z,0.00
2018-01-12T04:29:12.575Z,0.00
2018-01-12T04:30:12.546Z,0.00
2018-01-12T04:31:12.519Z,0.00
2018-01-12T04:32:12.497Z,0.00
2018-01-12T04:33:12.471Z,0.00
2018-01-12T04:34:12.497Z,0.00
2018-01-12T04:35:12.454Z,0.00
2018-01-12T04:36:12.394Z,0.00
2018-01-12T04:37:12.369Z,0.00
2018-01-12T04:38:12.346Z,0.00
2018-01-12T04:39:12.323Z,0.00
2018-01-12T04:40:12.297Z,0.00
2018-01-12T04:41:12.267Z,0.00
2018-01-12T04:42:12.238Z,0.00
2018-01-12T04:43:12.214Z,0.00
2018-01-12T04:44:12.194Z,0.00
2018-01-12T04:45:12.170Z,0.00
2018-01-12T04:46:12.136Z,0.00
2018-01-12T04:47:12.119Z,0.00
2018-01-12T04:48:12.086Z,0.00
2018-01-12T04:49:12.063Z,0.00
2018-01-12T04:50:12.035Z,0.00
2018-01-12T04:51:12.013Z,0.00
2018-01-12T04:52:11.994Z,0.00
2018-01-12T04:53:11.966Z,0.00
2018-01-12T04:54:11.938Z,0.00
2018-01-12T04:55:11.907Z,0.00
2018-01-12T04:56:11.892Z,0.00
2018-01-12T04:57:11.855Z,0.00
2018-01-12T04:58:11.836Z,0.00
2018-01-12T04:59:11.811Z,0.00
2018-01-12T05:00:11.794Z,0.00
2018-01-12T05:01:11.762Z,0.00
2018-01-12T05:02:11.742Z,0.00
2018-01-12T05:03:11.709Z,0.00
2018-01-12T05:04:11.680Z,0.00
2018-01-12T05:05:11.695Z,0.00
2018-01-12T05:06:11.628Z,0.00
2018-01-12T05:08:43.689Z,0.00
2018-01-12T05:09:43.655Z,0.00
2018-01-12T05:11:39.563Z,0.00
2018-01-12T05:12:39.480Z,0.00
2018-01-12T05:14:33.729Z,0.00
2018-01-12T05:15:33.676Z,0.00
2018-01-12T05:17:27.036Z,0.00
2018-01-12T05:18:27.007Z,0.00
2018-01-12T05:20:20.355Z,0.00
2018-01-12T05:21:20.561Z,0.00
2018-01-12T05:23:13.729Z,0.00
2018-01-12T05:24:13.669Z,0.00
2018-01-12T05:26:07.029Z,0.00
2018-01-12T05:27:06.995Z,0.00
2018-01-12T05:29:00.351Z,0.00
2018-01-12T05:30:00.316Z,0.00
2018-01-12T05:31:53.673Z,0.00
2018-01-12T05:32:53.630Z,0.00
2018-01-12T05:34:47.818Z,0.00
2018-01-12T05:35:47.773Z,0.00
2018-01-12T05:37:41.134Z,0.00
2018-01-12T05:38:41.078Z,0.00
2018-01-12T05:40:36.992Z,0.00
2018-01-12T05:41:36.913Z,0.00
2018-01-12T05:43:30.268Z,0.00
2018-01-12T05:44:30.221Z,0.00
2018-01-12T05:46:26.106Z,0.00
2018-01-12T05:47:26.085Z,0.00
2018-01-12T05:49:19.580Z,0.00
2018-01-12T05:50:19.407Z,0.00
2018-01-12T05:52:15.269Z,0.00
2018-01-12T05:53:15.192Z,0.00
2018-01-12T05:55:08.665Z,0.00
2018-01-12T05:56:08.559Z,0.00
2018-01-12T05:58:01.934Z,0.00
2018-01-12T05:59:01.888Z,0.00
2018-01-12T06:00:55.247Z,0.00
2018-01-12T06:01:55.202Z,0.00
2018-01-12T06:03:48.607Z,0.00
2018-01-12T06:04:48.566Z,0.00
2018-01-12T06:06:44.449Z,0.00
2018-01-12T06:07:44.396Z,0.00
2018-01-12T06:09:37.821Z,0.00
2018-01-12T06:10:37.761Z,0.00
2018-01-12T06:12:32.119Z,0.00
2018-01-12T06:13:32.088Z,0.00
2018-01-12T06:15:25.448Z,0.00
2018-01-12T06:16:25.395Z,0.00
2018-01-12T06:18:18.767Z,0.00
2018-01-12T06:19:18.746Z,0.00
2018-01-12T06:21:12.079Z,0.00
2018-01-12T06:22:12.036Z,0.00
2018-01-12T06:24:07.892Z,0.00
2018-01-12T06:25:07.852Z,0.00
2018-01-12T06:27:01.279Z,0.00
2018-01-12T06:28:01.234Z,0.00
2018-01-12T06:29:54.096Z,0.00
2018-01-12T06:30:54.056Z,0.00
2018-01-12T06:32:47.401Z,0.00
2018-01-12T06:33:47.372Z,0.00
2018-01-12T06:35:40.763Z,0.00
2018-01-12T06:36:40.672Z,0.00
2018-01-12T06:38:34.036Z,0.00
2018-01-12T06:39:33.982Z,0.00
2018-01-12T06:41:29.863Z,0.00
2018-01-12T06:42:29.823Z,0.00
2018-01-12T06:44:23.217Z,0.00
2018-01-12T06:45:23.158Z,0.00
2018-01-12T06:47:16.514Z,0.00
2018-01-12T06:48:16.472Z,0.00
2018-01-12T06:50:09.876Z,0.00
2018-01-12T06:51:09.814Z,0.00
2018-01-12T06:53:03.170Z,0.00
2018-01-12T06:54:03.136Z,0.00
2018-01-12T06:55:59.009Z,0.00
2018-01-12T06:56:58.978Z,0.00
2018-01-12T06:58:52.334Z,4.00
2018-01-12T06:59:52.289Z,4.00
2018-01-12T07:01:56.418Z,0.00
2018-01-12T07:02:56.367Z,0.00
2018-01-12T07:04:52.222Z,4.00
2018-01-12T07:05:52.179Z,4.00
2018-01-12T07:07:45.548Z,4.00
2018-01-12T07:08:45.497Z,4.00
2018-01-12T07:10:38.894Z,4.00
2018-01-12T07:11:38.854Z,4.00
2018-01-12T07:13:32.188Z,4.00
2018-01-12T07:14:32.141Z,8.00
2018-01-12T07:16:25.494Z,4.00
2018-01-12T07:17:25.457Z,8.00
2018-01-12T07:19:18.866Z,8.00
2018-01-12T07:20:18.777Z,12.00
2018-01-12T07:22:14.648Z,12.00
2018-01-12T07:23:14.601Z,12.00
2018-01-12T07:24:14.583Z,12.00
2018-01-12T07:25:14.556Z,8.00
2018-01-12T07:26:14.526Z,12.00
2018-01-12T07:27:14.499Z,12.00
2018-01-12T07:28:14.479Z,12.00
2018-01-12T07:29:14.465Z,12.00
2018-01-12T07:30:14.425Z,12.00
2018-01-12T07:31:14.401Z,12.00
2018-01-12T07:32:14.375Z,16.00
2018-01-12T07:33:14.348Z,12.00
2018-01-12T07:34:14.325Z,16.00
2018-01-12T07:35:14.299Z,16.00
2018-01-12T07:36:14.273Z,16.00
2018-01-12T07:37:14.245Z,16.00
2018-01-12T07:38:14.239Z,20.00
2018-01-12T07:39:14.197Z,20.00
2018-01-12T07:40:14.176Z,20.00
2018-01-12T07:41:14.143Z,20.00
2018-01-12T07:42:14.122Z,24.00
2018-01-12T07:43:14.099Z,24.00
2018-01-12T07:44:14.070Z,24.00
2018-01-12T07:45:14.043Z,24.00
2018-01-12T07:46:14.019Z,28.00
2018-01-12T07:47:13.994Z,28.00
2018-01-12T07:48:13.982Z,28.00
2018-01-12T07:49:13.943Z,28.00
2018-01-12T07:50:13.930Z,28.00
2018-01-12T07:51:13.932Z,32.00
2018-01-12T07:52:13.868Z,32.00
2018-01-12T07:53:13.841Z,36.00
2018-01-12T07:54:13.817Z,36.00
2018-01-12T07:55:13.795Z,36.00
2018-01-12T07:56:13.765Z,36.00
2018-01-12T07:57:13.741Z,36.00
2018-01-12T07:58:13.726Z,36.00
2018-01-12T07:59:13.687Z,32.00
2018-01-12T08:00:13.664Z,36.00
2018-01-12T08:01:13.635Z,36.00
2018-01-12T08:02:13.616Z,36.00
2018-01-12T08:03:13.587Z,32.00
2018-01-12T08:04:13.566Z,40.00
2018-01-12T08:05:13.534Z,40.00
2018-01-12T08:06:13.518Z,40.00
2018-01-12T08:07:13.487Z,44.00
2018-01-12T08:08:13.457Z,44.00
2018-01-12T08:09:13.430Z,48.00
2018-01-12T08:10:13.406Z,48.00
2018-01-12T08:11:13.385Z,44.00
2018-01-12T08:12:13.358Z,44.00
2018-01-12T08:13:13.329Z,44.00
2018-01-12T08:14:13.307Z,44.00
2018-01-12T08:15:13.281Z,48.00
2018-01-12T08:16:13.252Z,48.00
2018-01-12T08:17:13.237Z,52.00
2018-01-12T08:18:13.199Z,52.00
2018-01-12T08:19:13.177Z,52.00
2018-01-12T08:20:13.181Z,52.00
2018-01-12T08:21:13.126Z,56.00
2018-01-12T08:22:13.108Z,60.00
2018-01-12T08:23:13.077Z,60.00
2018-01-12T08:24:13.052Z,64.00
2018-01-12T08:25:13.026Z,68.00
2018-01-12T08:26:13.000Z,68.00
2018-01-12T08:27:13.025Z,68.00
2018-01-12T08:28:12.950Z,68.00
2018-01-12T08:29:12.918Z,68.00
2018-01-12T08:30:12.898Z,72.00
2018-01-12T08:31:12.865Z,76.00
2018-01-12T08:32:12.844Z,76.00
2018-01-12T08:33:12.816Z,80.00
2018-01-12T08:34:12.790Z,76.00
2018-01-12T08:35:12.765Z,68.00
2018-01-12T08:36:12.744Z,64.00
2018-01-12T08:37:12.715Z,60.00
2018-01-12T08:38:12.685Z,64.00
2018-01-12T08:39:12.669Z,64.00
2018-01-12T08:40:12.633Z,68.00
2018-01-12T08:41:12.606Z,64.00
2018-01-12T08:42:12.594Z,60.00
2018-01-12T08:43:12.557Z,52.00
2018-01-12T08:44:12.533Z,48.00
2018-01-12T08:45:12.509Z,48.00
2018-01-12T08:46:12.488Z,40.00
2018-01-12T08:47:12.466Z,36.00
2018-01-12T08:48:12.429Z,36.00
2018-01-12T08:49:12.405Z,36.00
2018-01-12T08:50:12.383Z,44.00
2018-01-12T08:51:12.350Z,44.00
2018-01-12T08:52:12.326Z,44.00
2018-01-12T08:53:12.305Z,44.00
2018-01-12T08:54:12.277Z,44.00
2018-01-12T08:55:12.258Z,48.00
2018-01-12T08:56:12.230Z,48.00
2018-01-12T08:57:12.216Z,52.00
2018-01-12T08:58:12.183Z,52.00
2018-01-12T08:59:12.173Z,56.00
2018-01-12T09:00:12.140Z,60.00
2018-01-12T09:01:12.101Z,56.00
2018-01-12T09:02:12.070Z,60.00
2018-01-12T09:03:12.104Z,60.00
2018-01-12T09:04:12.024Z,60.00
2018-01-12T09:05:11.993Z,64.00
2018-01-12T09:06:11.967Z,68.00
2018-01-12T09:07:11.946Z,72.00
2018-01-12T09:08:11.915Z,84.00
2018-01-12T09:09:11.890Z,92.00
2018-01-12T09:10:11.868Z,92.00
2018-01-12T09:11:11.841Z,96.00
2018-01-12T09:12:11.823Z,104.00
2018-01-12T09:13:11.792Z,116.00
2018-01-12T09:14:11.761Z,112.00
2018-01-12T09:15:11.736Z,116.00
2018-01-12T09:16:11.713Z,120.00
2018-01-12T09:17:11.684Z,124.00
2018-01-12T09:18:11.664Z,132.00
2018-01-12T09:19:11.639Z,128.00
2018-01-12T09:20:11.613Z,132.00
2018-01-12T09:21:11.585Z,132.00
2018-01-12T09:22:11.557Z,132.00
2018-01-12T09:23:11.544Z,136.00
2018-01-12T09:24:11.509Z,136.00
2018-01-12T09:25:11.484Z,136.00
2018-01-12T09:26:11.465Z,136.00
2018-01-12T09:27:11.436Z,140.00
2018-01-12T09:28:11.410Z,144.00
2018-01-12T09:29:11.381Z,148.00
2018-01-12T09:30:11.353Z,152.00
2018-01-12T09:31:11.330Z,156.00
2018-01-12T09:32:11.303Z,172.00
2018-01-12T09:33:11.278Z,196.00
2018-01-12T09:34:11.260Z,220.00
2018-01-12T09:35:11.232Z,220.00
2018-01-12T09:36:11.205Z,208.00
2018-01-12T09:37:11.177Z,204.00
2018-01-12T09:38:11.171Z,196.00
2018-01-12T09:39:11.160Z,192.00
2018-01-12T09:40:11.107Z,188.00
2018-01-12T09:41:11.076Z,200.00
2018-01-12T09:42:11.051Z,220.00
2018-01-12T09:43:11.034Z,216.00
2018-01-12T09:44:11.000Z,192.00
2018-01-12T09:45:10.974Z,180.00
2018-01-12T09:46:10.954Z,176.00
2018-01-12T09:47:10.928Z,168.00
2018-01-12T09:48:10.909Z,172.00
2018-01-12T09:49:10.872Z,180.00
2018-01-12T09:50:10.854Z,196.00
2018-01-12T09:51:10.824Z,212.00
2018-01-12T09:52:10.806Z,220.00
2018-01-12T09:53:10.820Z,232.00
2018-01-12T09:54:10.747Z,248.00
2018-01-12T09:55:10.726Z,260.00
2018-01-12T09:56:10.695Z,276.00
2018-01-12T09:57:10.681Z,276.00
2018-01-12T09:58:10.643Z,276.00
2018-01-12T09:59:10.658Z,272.00
2018-01-12T10:00:10.595Z,264.00
2018-01-12T10:01:10.570Z,264.00
2018-01-12T10:02:10.543Z,264.00
2018-01-12T10:03:10.528Z,268.00
2018-01-12T10:04:10.505Z,252.00
2018-01-12T10:05:10.480Z,248.00
2018-01-12T10:06:10.449Z,252.00
2018-01-12T10:07:10.423Z,232.00
2018-01-12T10:08:10.391Z,228.00
2018-01-12T10:09:10.370Z,236.00
2018-01-12T10:10:10.347Z,244.00
2018-01-12T10:11:10.316Z,252.00
2018-01-12T10:12:10.295Z,264.00
2018-01-12T10:13:10.267Z,272.00
2018-01-12T10:14:10.269Z,264.00
2018-01-12T10:15:10.259Z,264.00
2018-01-12T10:16:10.194Z,256.00
2018-01-12T10:17:10.166Z,260.00
2018-01-12T10:18:10.169Z,264.00
2018-01-12T10:19:10.126Z,264.00
2018-01-12T10:20:10.099Z,264.00
2018-01-12T10:21:10.062Z,264.00
2018-01-12T10:22:31.042Z,260.00
2018-01-12T10:23:10.015Z,260.00
2018-01-12T10:24:09.989Z,260.00
2018-01-12T10:25:09.961Z,260.00
2018-01-12T10:26:09.939Z,268.00
2018-01-12T10:27:09.914Z,264.00
2018-01-12T10:28:09.895Z,280.00
2018-01-12T10:29:09.862Z,284.00
2018-01-12T10:30:09.837Z,288.00
2018-01-12T10:31:09.814Z,300.00
2018-01-12T10:32:09.789Z,316.00
2018-01-12T10:33:09.832Z,332.00
2018-01-12T10:34:09.735Z,328.00
2018-01-12T10:35:09.712Z,316.00
2018-01-12T10:36:09.687Z,312.00
2018-01-12T10:37:09.660Z,316.00
2018-01-12T10:38:09.639Z,320.00
2018-01-12T10:39:09.612Z,316.00
2018-01-12T10:40:09.586Z,316.00
2018-01-12T10:41:09.565Z,320.00
2018-01-12T10:42:09.539Z,316.00
2018-01-12T10:43:09.512Z,324.00
2018-01-12T10:44:09.485Z,328.00
2018-01-12T10:45:09.459Z,336.00
2018-01-12T10:46:09.441Z,344.00
2018-01-12T10:47:09.414Z,340.00
2018-01-12T10:48:09.389Z,320.00
2018-01-12T10:49:09.355Z,292.00
2018-01-12T10:50:09.335Z,276.00
2018-01-12T10:51:09.311Z,260.00
2018-01-12T10:52:09.333Z,232.00
2018-01-12T10:53:09.258Z,216.00
2018-01-12T10:54:09.241Z,208.00
2018-01-12T10:55:09.208Z,204.00
2018-01-12T10:56:09.185Z,204.00
2018-01-12T10:57:09.159Z,208.00
2018-01-12T10:58:09.137Z,216.00
2018-01-12T10:59:09.114Z,224.00
2018-01-12T11:00:09.083Z,236.00
2018-01-12T11:01:09.055Z,240.00
2018-01-12T11:02:09.031Z,236.00
2018-01-12T11:03:09.006Z,228.00
2018-01-12T11:04:08.982Z,236.00
2018-01-12T11:05:08.954Z,248.00
2018-01-12T11:06:08.931Z,236.00
2018-01-12T11:07:08.904Z,224.00
2018-01-12T11:08:08.882Z,228.00
2018-01-12T11:09:08.870Z,240.00
2018-01-12T11:10:08.842Z,276.00
2018-01-12T11:11:08.804Z,296.00
2018-01-12T11:12:08.783Z,272.00
2018-01-12T11:13:08.762Z,252.00
2018-01-12T11:14:08.728Z,256.00
2018-01-12T11:15:08.706Z,272.00
2018-01-12T11:16:08.680Z,280.00
2018-01-12T11:17:08.651Z,252.00
2018-01-12T11:18:08.626Z,232.00
2018-01-12T11:19:08.604Z,216.00
2018-01-12T11:20:08.581Z,212.00
2018-01-12T11:21:08.551Z,216.00
2018-01-12T11:22:08.574Z,224.00
2018-01-12T11:23:08.501Z,236.00
2018-01-12T11:24:08.478Z,252.00
2018-01-12T11:25:08.450Z,260.00
2018-01-12T11:26:08.429Z,264.00
2018-01-12T11:27:08.401Z,264.00
2018-01-12T11:28:08.383Z,260.00
2018-01-12T11:29:08.394Z,260.00
2018-01-12T11:30:08.326Z,264.00
2018-01-12T11:31:08.305Z,272.00
2018-01-12T11:32:08.282Z,292.00
2018-01-12T11:33:08.251Z,304.00
2018-01-12T11:34:08.229Z,324.00
2018-01-12T11:35:08.202Z,344.00
2018-01-12T11:36:08.177Z,352.00
2018-01-12T11:37:08.147Z,360.00
2018-01-12T11:38:08.126Z,368.00
2018-01-12T11:39:08.102Z,384.00
2018-01-12T11:40:08.086Z,416.00
2018-01-12T11:41:08.047Z,428.00
2018-01-12T11:42:08.024Z,428.00
2018-01-12T11:43:08.002Z,440.00
2018-01-12T11:44:07.972Z,440.00
2018-01-12T11:45:07.963Z,424.00
2018-01-12T11:46:07.926Z,416.00
2018-01-12T11:47:07.903Z,428.00
2018-01-12T11:48:07.884Z,416.00
2018-01-12T11:49:07.855Z,408.00
2018-01-12T11:50:07.824Z,416.00
2018-01-12T11:51:07.808Z,404.00
2018-01-12T11:52:07.776Z,416.00
2018-01-12T11:53:07.754Z,404.00
2018-01-12T11:54:07.724Z,372.00
2018-01-12T11:55:07.699Z,352.00
2018-01-12T11:56:07.676Z,368.00
2018-01-12T11:57:07.648Z,384.00
2018-01-12T11:58:07.624Z,388.00
2018-01-12T11:59:07.619Z,388.00
2018-01-12T12:00:07.576Z,408.00
2018-01-12T12:01:07.551Z,420.00
2018-01-12T12:02:07.524Z,432.00
2018-01-12T12:03:07.497Z,440.00
2018-01-12T12:04:07.472Z,436.00
2018-01-12T12:05:07.471Z,424.00
2018-01-12T12:06:07.426Z,424.00
2018-01-12T12:07:07.408Z,424.00
2018-01-12T12:08:07.372Z,424.00
2018-01-12T12:09:07.354Z,420.00
2018-01-12T12:10:07.326Z,420.00
2018-01-12T12:11:07.302Z,424.00
2018-01-12T12:12:07.274Z,432.00
2018-01-12T12:13:07.249Z,448.00
2018-01-12T12:14:07.220Z,460.00
2018-01-12T12:15:07.201Z,476.00
2018-01-12T12:16:07.176Z,488.00
2018-01-12T12:17:07.160Z,472.00
2018-01-12T12:18:07.121Z,436.00
2018-01-12T12:19:07.105Z,412.00
2018-01-12T12:20:07.070Z,396.00
2018-01-12T12:21:07.053Z,376.00
2018-01-12T12:22:07.030Z,356.00
2018-01-12T12:23:07.007Z,340.00
2018-01-12T12:24:06.972Z,312.00
2018-01-12T12:25:06.944Z,292.00
2018-01-12T12:26:06.936Z,272.00
2018-01-12T12:27:06.897Z,276.00
2018-01-12T12:28:06.877Z,280.00
2018-01-12T12:29:06.848Z,292.00
2018-01-12T12:30:06.820Z,312.00
2018-01-12T12:31:06.797Z,328.00
2018-01-12T12:32:06.780Z,328.00
2018-01-12T12:33:06.756Z,316.00
2018-01-12T12:34:06.722Z,304.00
2018-01-12T12:35:06.699Z,292.00
2018-01-12T12:36:06.678Z,284.00
2018-01-12T12:37:06.656Z,268.00
2018-01-12T12:38:06.624Z,252.00
2018-01-12T12:39:06.597Z,248.00
2018-01-12T12:40:06.574Z,248.00
2018-01-12T12:41:06.551Z,240.00
2018-01-12T12:42:06.527Z,240.00
2018-01-12T12:43:06.547Z,240.00
2018-01-12T12:44:06.472Z,240.00
2018-01-12T12:45:06.451Z,244.00
2018-01-12T12:46:06.422Z,244.00
2018-01-12T12:47:06.397Z,240.00
2018-01-12T12:48:06.374Z,224.00
2018-01-12T12:49:06.349Z,220.00
2018-01-12T12:50:06.322Z,232.00
2018-01-12T12:51:06.299Z,240.00
2018-01-12T12:52:06.272Z,252.00
2018-01-12T12:53:09.242Z,260.00
2018-01-12T12:54:06.222Z,268.00
2018-01-12T12:55:06.199Z,280.00
2018-01-12T12:56:06.176Z,296.00
2018-01-12T12:57:06.201Z,296.00
2018-01-12T12:58:06.196Z,288.00
2018-01-12T12:59:06.103Z,272.00
2018-01-12T13:00:06.081Z,260.00
2018-01-12T13:01:06.053Z,260.00
2018-01-12T13:02:06.024Z,272.00
2018-01-12T13:03:05.999Z,296.00
2018-01-12T13:04:05.980Z,296.00
2018-01-12T13:05:05.947Z,276.00
2018-01-12T13:06:05.922Z,268.00
2018-01-12T13:07:05.899Z,268.00
2018-01-12T13:08:05.872Z,276.00
2018-01-12T13:09:05.845Z,276.00
2018-01-12T13:10:05.826Z,256.00
2018-01-12T13:11:05.821Z,244.00
2018-01-12T13:12:05.792Z,232.00
2018-01-12T13:13:05.745Z,228.00
2018-01-12T13:14:05.723Z,232.00
2018-01-12T13:15:05.713Z,232.00
2018-01-12T13:16:05.682Z,236.00
2018-01-12T13:17:05.655Z,240.00
2018-01-12T13:18:05.624Z,244.00
2018-01-12T13:19:05.637Z,252.00
2018-01-12T13:20:05.580Z,240.00
2018-01-12T13:21:05.549Z,236.00
2018-01-12T13:22:05.528Z,228.00
2018-01-12T13:23:05.499Z,224.00
2018-01-12T13:24:05.479Z,228.00
2018-01-12T13:25:05.447Z,232.00
2018-01-12T13:26:05.432Z,232.00
2018-01-12T13:27:05.416Z,236.00
2018-01-12T13:28:05.379Z,240.00
2018-01-12T13:29:05.403Z,244.00
2018-01-12T13:30:05.329Z,252.00
2018-01-12T13:31:05.302Z,248.00
2018-01-12T13:32:05.272Z,244.00
2018-01-12T13:33:05.248Z,244.00
2018-01-12T13:34:05.232Z,244.00
2018-01-12T13:35:05.203Z,244.00
2018-01-12T13:36:05.182Z,248.00
2018-01-12T13:37:05.147Z,228.00
2018-01-12T13:38:05.124Z,204.00
2018-01-12T13:39:05.100Z,188.00